Nearby METAR Reports

 

KSJC - San Jose, California, USA
Distance from station: NE 9mi, 14km
Updated: Sat, 29-Apr-2017 1:53am CDT
Clear
Clear
 Wind from NE
Wind: NE 3 mph , 6 km/h
Temperature: 59°F , 15°C
Dew Point: 48°F , 9°C
Humidity: 68%
Barometer: 30.03 inHg , 1016.9 hPa
Clouds: Clear
Visibility: 10 miles , 16 km
2017/04/29 06:53 KSJC 290653Z 04003KT 10SM CLR 15/09 A3003 RMK AO2 SLP168 LAST T01500089
KNUQ - Moffett Nas/Mtn, California, USA
Distance from station: N 9mi, 14km
Updated: Sat, 29-Apr-2017 1:56am CDT
Clear
Clear
 Wind from calm
Wind: Calm
Temperature: 61°F , 16°C
Dew Point: 39°F , 4°C
Humidity: 45%
Barometer: 30.04 inHg , 1017.3 hPa
Clouds: Clear
Visibility: 10 miles , 16 km
2017/04/29 06:56 KNUQ 290656Z 00000KT 10SM CLR 16/04 A3004 RMK AO2 SLP173 T01560039
KPAO - Palo Alto, California, USA
Distance from station: NNW 14mi, 23km
Updated: Fri, 28-Apr-2017 11:47pm CDT
NOT Current
Clear
Clear
 Wind from WNW
Wind: WNW 12 mph , 19 km/h
Temperature: 61°F , 16°C
Dew Point: 45°F , 7°C
Humidity: 55%
Barometer: 30.01 inHg , 1016.3 hPa
Clouds: Clear
Visibility: 10 miles , 16 km
2017/04/29 04:47 KPAO 290447Z 30010KT 10SM SKC 16/07 A3001 RMK LAST
 
KRHV - San Jose/Reid, California, USA
Distance from station: ENE 12mi, 19km
Updated: Fri, 28-Apr-2017 11:47pm CDT
NOT Current
Clear
Clear
 Wind from NW
Wind: NW 6 mph , 9 km/h
Temperature: 57°F , 14°C
Dew Point: 48°F , 9°C
Humidity: 72%
Barometer: 30.05 inHg , 1017.6 hPa
Clouds: Clear
Visibility: 10 miles , 16 km
2017/04/29 04:47 KRHV 290447Z 32005KT 10SM SKC 14/09 A3005 RMK LAST
KOAK - Oakland, California, USA
Distance from station: NNW 31mi, 50km
Updated: Sat, 29-Apr-2017 1:53am CDT
Clear
Clear
 Wind from NNW
Wind: NNW 10 mph , 17 km/h
Temperature: 63°F , 17°C
Dew Point: 46°F , 8°C
Humidity: 56%
Barometer: 30.03 inHg , 1016.9 hPa
Clouds: Clear
Visibility: 10 miles , 16 km
2017/04/29 06:53 KOAK 290653Z 33009KT 10SM CLR 17/08 A3003 RMK AO2 SLP168 T01670078
KSQL - San Carlos Airpo, California, USA
Distance from station: NW 21mi, 34km
Updated: Sat, 29-Apr-2017 2:15am CDT
Clear
Clear
 Wind from NW
Wind: NW 8 mph , 13 km/h
Temperature: 63°F , 17°C
Dew Point: 36°F , 2°C
Humidity: 37%
Barometer: 30.04 inHg , 1017.3 hPa
Clouds: Clear
Visibility: 10 miles , 16 km
2017/04/29 07:15 KSQL 290715Z AUTO 31007KT 10SM CLR 17/02 A3004 RMK AO2
 
KSFO - San Francisco, California, USA
Distance from station: NW 30mi, 49km
Updated: Sat, 29-Apr-2017 1:56am CDT
Clear
Clear
 Wind from W
Wind: W 9 mph , 15 km/h
Temperature: 57°F , 14°C
Dew Point: 43°F , 6°C
Humidity: 59%
Barometer: 30.03 inHg , 1016.9 hPa
Clouds: Clear
Visibility: 10 miles , 16 km
2017/04/29 06:56 KSFO 290656Z 28008KT 10SM CLR 14/06 A3003 RMK AO2 SLP170 T01390056
KE16 - San Martin, California, USA
Distance from station: ESE 27mi, 43km
Updated: Sat, 29-Apr-2017 1:25am CDT
Few Clouds
Few Clouds
 Wind from NW
Wind: NW 16 mph , 26 km/h, Gust: 21 mph , 33 km/h
Temperature: 57°F , 14°C
Dew Point: 46°F , 8°C
Humidity: 67%
Barometer: 30.01 inHg , 1016.3 hPa
Clouds: Few Clouds
Visibility: 10 miles , 16 km
Cloud details: Few Clouds 2200 ft
2017/04/29 06:25 KE16 290625Z AUTO 32014G18KT 10SM FEW022 14/08 A3001 RMK AO2
KWVI - Watsonville, California, USA
Distance from station: SSE 27mi, 44km
Updated: Sat, 29-Apr-2017 1:53am CDT
Mist, Clear
Mist, Clear
 Wind from varies
Wind: varies 3 mph , 6 km/h
Temperature: 50°F , 10°C
Dew Point: 48°F , 9°C
Humidity: 94%
Barometer: 30.03 inHg , 1016.9 hPa
Summary: Mist
Clouds: Clear
Visibility: 4 miles , 6 km
2017/04/29 06:53 KWVI 290653Z AUTO VRB03KT 4SM BR CLR 10/09 A3003 RMK AO2 SLP167 T01000089
 
KHAF - Half Moon Bay, California, USA
Distance from station: WNW 31mi, 50km
Updated: Sat, 29-Apr-2017 2:15am CDT
Mist, Overcast
Mist, Overcast
 Wind from calm
Wind: Calm
Temperature: 50°F , 10°C
Dew Point: 48°F , 9°C
Humidity: 94%
Barometer: 30.05 inHg , 1017.6 hPa
Summary: Mist
Clouds: Overcast
Visibility: 5 miles , 8 km
Cloud details: Overcast 200 ft
2017/04/29 07:15 KHAF 290715Z AUTO 00000KT 5SM BR OVC002 10/09 A3005 RMK AO2
KHWD - Hayward, California, USA
Distance from station: N 28mi, 44km
Updated: Sat, 29-Apr-2017 1:54am CDT
Clear
Clear
 Wind from S
Wind: S 5 mph , 7 km/h
Temperature: 57°F , 14°C
Dew Point: 45°F , 7°C
Humidity: 63%
Barometer: 30.02 inHg , 1016.6 hPa
Clouds: Clear
Visibility: 10 miles , 16 km
2017/04/29 06:54 KHWD 290654Z 18004KT 10SM CLR 14/07 A3002 RMK AO2 SLP175 T01440067
KLVK - Livermore, California, USA
Distance from station: NNE 31mi, 51km
Updated: Sat, 29-Apr-2017 1:53am CDT
Clear
Clear
 Wind from W
Wind: W 6 mph , 9 km/h
Temperature: 57°F , 14°C
Dew Point: 34°F , 1°C
Humidity: 41%
Barometer: 30.02 inHg , 1016.6 hPa
Clouds: Clear
Visibility: 10 miles , 16 km
2017/04/29 06:53 KLVK 290653Z AUTO 26005KT 10SM CLR 14/01 A3002 RMK AO2 SLP162 T01440006 TSNO